Time;durP1;ratioP1;P1;durP2;ratioP2;P2;SDS_P1;SDS_P2;PMS_P1;PMS_P2;Temp;Humidity;BMP_temperature;BMP_pressure;BME280_temperature;BME280_humidity;BME280_pressure;Samples;Min_cycle;Max_cycle;Signal;HPM_P1;HPM_P2
2022/08/26 00:00:45;;;;;;;;;;;20.50;99.90;;;;;;5049586;28;19928;-80
2022/08/26 00:03:12;;;;;;;;;;;20.50;99.90;;;;;;5066318;28;19968;-77
2022/08/26 00:05:39;;;;;;;;;;;20.50;99.90;;;;;;5049692;28;19935;-79
2022/08/26 00:08:07;;;;;;;;;;;20.50;99.90;;;;;;5065482;28;19928;-79
2022/08/26 00:10:33;;;;;;;;;;;20.40;99.90;;;;;;5051609;28;19928;-79
2022/08/26 00:13:00;;;;;;;;;;;20.40;99.90;;;;;;5063995;28;19932;-79
2022/08/26 00:15:29;;;;;;;;;;;20.40;99.90;;;;;;5048908;28;19936;-78
2022/08/26 00:17:55;;;;;;;;;;;20.40;99.90;;;;;;5051772;28;21091;-78
2022/08/26 00:20:27;;;;;;;;;;;20.40;99.90;;;;;;5047649;28;20328;-79
2022/08/26 00:22:53;;;;;;;;;;;20.40;99.90;;;;;;5068850;28;20198;-80
2022/08/26 00:25:21;;;;;;;;;;;20.30;99.90;;;;;;5064329;28;19936;-80
2022/08/26 00:27:48;;;;;;;;;;;20.40;99.90;;;;;;5067548;28;19928;-80
2022/08/26 00:30:24;;;;;;;;;;;20.30;99.90;;;;;;5067877;28;19935;-80
2022/08/26 00:32:53;;;;;;;;;;;20.40;99.90;;;;;;5074155;28;19929;-79
2022/08/26 00:35:21;;;;;;;;;;;20.30;99.90;;;;;;5068969;28;19929;-78
2022/08/26 00:37:48;;;;;;;;;;;21.50;99.90;;;;;;5049029;28;19999;-78
2022/08/26 00:40:16;;;;;;;;;;;20.30;99.90;;;;;;5051326;28;20467;-77
2022/08/26 00:42:44;;;;;;;;;;;20.30;99.90;;;;;;5052480;28;19928;-78
2022/08/26 00:45:11;;;;;;;;;;;20.30;99.90;;;;;;5070106;28;19943;-78
2022/08/26 00:47:40;;;;;;;;;;;20.30;99.90;;;;;;5074016;28;19928;-79
2022/08/26 00:50:11;;;;;;;;;;;20.30;99.90;;;;;;5055631;28;19931;-79
2022/08/26 00:52:39;;;;;;;;;;;20.30;99.90;;;;;;5070439;28;19932;-79
2022/08/26 00:55:08;;;;;;;;;;;20.40;99.90;;;;;;5053123;28;20436;-78
2022/08/26 00:57:36;;;;;;;;;;;20.30;99.90;;;;;;5073014;28;19928;-78
2022/08/26 01:00:06;;;;;;;;;;;20.30;99.90;;;;;;5052683;28;19925;-77
2022/08/26 01:02:33;;;;;;;;;;;20.40;99.90;;;;;;5050218;28;20300;-77
2022/08/26 01:05:01;;;;;;;;;;;20.30;99.90;;;;;;5049192;28;19928;-79
2022/08/26 01:07:31;;;;;;;;;;;20.30;99.90;;;;;;5058892;28;20038;-80
2022/08/26 01:09:59;;;;;;;;;;;20.40;99.90;;;;;;5050601;28;19929;-78
2022/08/26 01:12:27;;;;;;;;;;;20.40;99.90;;;;;;5053838;28;19928;-77
2022/08/26 01:14:54;;;;;;;;;;;20.40;99.90;;;;;;5050794;28;19928;-77
2022/08/26 01:17:21;;;;;;;;;;;20.60;99.90;;;;;;5050923;28;19936;-76
2022/08/26 01:19:50;;;;;;;;;;;20.40;99.90;;;;;;5034845;28;19929;-77
2022/08/26 01:22:19;;;;;;;;;;;20.40;99.90;;;;;;5047687;28;20016;-76
2022/08/26 01:24:48;;;;;;;;;;;20.30;99.90;;;;;;5050045;28;19928;-76
2022/08/26 01:27:17;;;;;;;;;;;20.50;99.90;;;;;;5038587;28;19970;-76
2022/08/26 01:29:44;;;;;;;;;;;20.50;99.90;;;;;;5037549;28;20118;-77
2022/08/26 01:32:14;;;;;;;;;;;20.50;99.90;;;;;;5034607;28;19939;-78
2022/08/26 01:34:41;;;;;;;;;;;20.50;99.90;;;;;;5065650;28;19954;-78
2022/08/26 01:37:10;;;;;;;;;;;20.50;99.90;;;;;;5070215;28;20439;-77
2022/08/26 01:39:37;;;;;;;;;;;20.50;99.90;;;;;;5069516;28;19967;-77
2022/08/26 01:42:07;;;;;;;;;;;20.50;99.90;;;;;;5052628;28;19950;-76
2022/08/26 01:44:36;;;;;;;;;;;20.50;99.90;;;;;;5042647;28;20007;-78
2022/08/26 01:47:03;;;;;;;;;;;20.50;99.90;;;;;;5039115;28;19932;-78
2022/08/26 01:49:31;;;;;;;;;;;20.50;99.90;;;;;;5070029;28;20387;-77
2022/08/26 01:51:58;;;;;;;;;;;20.50;99.90;;;;;;5051477;28;19924;-76
2022/08/26 01:54:25;;;;;;;;;;;20.50;99.90;;;;;;5067780;28;19932;-77
2022/08/26 01:56:52;;;;;;;;;;;20.50;99.90;;;;;;5067421;28;19928;-77
2022/08/26 01:59:21;;;;;;;;;;;20.40;99.90;;;;;;5067514;28;19947;-77
2022/08/26 02:01:48;;;;;;;;;;;20.40;99.90;;;;;;5049113;28;19925;-77
2022/08/26 02:04:17;;;;;;;;;;;20.50;99.90;;;;;;5050868;28;20551;-77
2022/08/26 02:06:44;;;;;;;;;;;20.50;99.90;;;;;;5053255;28;19982;-75
2022/08/26 02:09:12;;;;;;;;;;;20.50;99.90;;;;;;5053604;28;19924;-77
2022/08/26 02:11:39;;;;;;;;;;;20.40;99.90;;;;;;5071742;28;19981;-77
2022/08/26 02:14:08;;;;;;;;;;;20.40;99.90;;;;;;5064773;28;20343;-76
2022/08/26 02:16:39;;;;;;;;;;;20.40;99.90;;;;;;5053304;28;19940;-77
2022/08/26 02:19:08;;;;;;;;;;;20.30;99.90;;;;;;5053910;28;19931;-76
2022/08/26 02:21:35;;;;;;;;;;;20.30;99.90;;;;;;5052239;28;19936;-76
2022/08/26 02:24:08;;;;;;;;;;;20.30;99.90;;;;;;5052768;28;19924;-76
2022/08/26 02:26:35;;;;;;;;;;;20.30;99.90;;;;;;5053425;28;19939;-76
2022/08/26 02:29:05;;;;;;;;;;;20.30;99.90;;;;;;5054556;28;19925;-78
2022/08/26 02:31:32;;;;;;;;;;;20.30;99.90;;;;;;5054538;28;20474;-77
2022/08/26 02:34:08;;;;;;;;;;;20.30;99.90;;;;;;5054282;28;20310;-77
2022/08/26 02:36:35;;;;;;;;;;;20.30;99.90;;;;;;5069637;28;20429;-76
2022/08/26 02:39:01;;;;;;;;;;;20.30;99.90;;;;;;5071944;28;19975;-78
2022/08/26 02:41:28;;;;;;;;;;;20.30;99.90;;;;;;5054760;28;19936;-76
2022/08/26 02:43:55;;;;;;;;;;;20.30;99.90;;;;;;5048711;28;20345;-77
2022/08/26 02:46:22;;;;;;;;;;;20.30;99.90;;;;;;5052727;28;19932;-76
2022/08/26 02:48:50;;;;;;;;;;;20.40;99.90;;;;;;5054898;28;19943;-77
2022/08/26 02:51:18;;;;;;;;;;;20.40;99.90;;;;;;5055683;28;20023;-77
2022/08/26 02:53:45;;;;;;;;;;;20.50;99.90;;;;;;5053647;28;19950;-77
2022/08/26 02:56:12;;;;;;;;;;;20.50;99.90;;;;;;5072244;28;19967;-77
2022/08/26 02:58:38;;;;;;;;;;;20.60;99.90;;;;;;5053783;28;19929;-78
2022/08/26 03:01:06;;;;;;;;;;;20.60;99.90;;;;;;5055021;28;20388;-77
2022/08/26 03:03:32;;;;;;;;;;;20.70;99.90;;;;;;5070016;28;19928;-78
2022/08/26 03:05:59;;;;;;;;;;;20.80;99.90;;;;;;5052652;28;19928;-77
2022/08/26 03:08:28;;;;;;;;;;;20.80;99.90;;;;;;5071997;28;19974;-77
2022/08/26 03:10:55;;;;;;;;;;;20.90;99.90;;;;;;5049727;28;19935;-77
2022/08/26 03:13:22;;;;;;;;;;;21.00;99.90;;;;;;5054533;28;19958;-77
2022/08/26 03:15:48;;;;;;;;;;;21.00;99.90;;;;;;5053542;28;19924;-78
2022/08/26 03:18:15;;;;;;;;;;;21.00;99.90;;;;;;5053939;28;19935;-78
2022/08/26 03:20:42;;;;;;;;;;;21.10;99.90;;;;;;5054371;28;20026;-77
2022/08/26 03:23:09;;;;;;;;;;;21.10;99.90;;;;;;5053511;28;19924;-77
2022/08/26 03:25:38;;;;;;;;;;;21.20;99.90;;;;;;5060348;28;19929;-78
2022/08/26 03:28:05;;;;;;;;;;;21.20;99.90;;;;;;5046642;28;20428;-76
2022/08/26 03:30:40;;;;;;;;;;;21.20;99.90;;;;;;5051824;28;19993;-76
2022/08/26 03:33:10;;;;;;;;;;;21.20;99.90;;;;;;5052017;28;19924;-76
2022/08/26 03:35:37;;;;;;;;;;;21.30;99.90;;;;;;5068599;28;19929;-77
2022/08/26 03:38:05;;;;;;;;;;;21.30;99.90;;;;;;5064805;28;19982;-78
2022/08/26 03:40:33;;;;;;;;;;;21.30;99.90;;;;;;5052009;28;19939;-78
2022/08/26 03:43:02;;;;;;;;;;;21.40;99.90;;;;;;5061779;28;19972;-80
2022/08/26 03:45:29;;;;;;;;;;;21.40;99.90;;;;;;5044857;28;19984;-78
2022/08/26 03:47:59;;;;;;;;;;;21.50;99.90;;;;;;5051813;28;20039;-79
2022/08/26 03:50:26;;;;;;;;;;;21.50;99.90;;;;;;5051428;28;20438;-77
2022/08/26 03:52:54;;;;;;;;;;;21.50;99.90;;;;;;5051280;28;19928;-77
2022/08/26 03:55:21;;;;;;;;;;;21.50;99.90;;;;;;5051129;28;19970;-78
2022/08/26 03:57:48;;;;;;;;;;;21.50;99.90;;;;;;5069235;28;19982;-78
2022/08/26 04:00:17;;;;;;;;;;;21.50;99.90;;;;;;5051324;28;19932;-77
2022/08/26 04:02:44;;;;;;;;;;;21.50;99.90;;;;;;5050549;28;20457;-78
2022/08/26 04:05:12;;;;;;;;;;;21.60;99.90;;;;;;5069232;28;19939;-83
2022/08/26 04:07:39;;;;;;;;;;;21.60;99.90;;;;;;5051147;28;19932;-79
2022/08/26 04:10:07;;;;;;;;;;;21.60;99.90;;;;;;5051292;28;19971;-81
2022/08/26 04:12:34;;;;;;;;;;;21.60;99.90;;;;;;5051278;28;20510;-77
2022/08/26 04:15:01;;;;;;;;;;;21.60;99.90;;;;;;5050842;28;20315;-78
2022/08/26 04:17:29;;;;;;;;;;;21.60;99.90;;;;;;5051872;28;20315;-77
2022/08/26 04:19:56;;;;;;;;;;;21.60;99.90;;;;;;5069152;28;20511;-77
2022/08/26 04:22:23;;;;;;;;;;;21.60;99.90;;;;;;5050947;28;20479;-77
2022/08/26 04:24:49;;;;;;;;;;;21.60;99.90;;;;;;5050750;28;19977;-78
2022/08/26 04:27:16;;;;;;;;;;;21.60;99.90;;;;;;5051128;28;20002;-81
2022/08/26 04:29:45;;;;;;;;;;;21.60;99.90;;;;;;5050891;28;19932;-79
2022/08/26 04:32:11;;;;;;;;;;;21.60;99.90;;;;;;5050938;28;20411;-80
2022/08/26 04:34:40;;;;;;;;;;;21.60;99.90;;;;;;5051155;28;19955;-79
2022/08/26 04:37:07;;;;;;;;;;;21.60;99.90;;;;;;5068203;28;19928;-83
2022/08/26 04:39:34;;;;;;;;;;;20.10;99.90;;;;;;5051299;28;19982;-78
2022/08/26 04:42:01;;;;;;;;;;;21.60;99.90;;;;;;5044337;28;20316;-81
2022/08/26 04:44:29;;;;;;;;;;;21.60;99.90;;;;;;5055536;28;19928;-78
2022/08/26 04:46:57;;;;;;;;;;;21.60;99.90;;;;;;5050764;28;19928;-78
2022/08/26 04:49:24;;;;;;;;;;;21.60;99.90;;;;;;5048854;28;19932;-78
2022/08/26 04:51:52;;;;;;;;;;;21.60;99.90;;;;;;5050760;28;19928;-78
2022/08/26 04:54:19;;;;;;;;;;;21.60;99.90;;;;;;5065970;28;19967;-80
2022/08/26 04:56:48;;;;;;;;;;;21.60;99.90;;;;;;5068327;28;20303;-77
2022/08/26 04:59:16;;;;;;;;;;;21.60;99.90;;;;;;5050723;28;20242;-77
2022/08/26 05:01:43;;;;;;;;;;;21.60;99.90;;;;;;5049784;28;20536;-78
2022/08/26 05:04:10;;;;;;;;;;;21.60;99.90;;;;;;5041245;28;19932;-78
2022/08/26 05:06:38;;;;;;;;;;;21.70;99.90;;;;;;5046390;28;19944;-80
2022/08/26 05:09:06;;;;;;;;;;;21.70;99.90;;;;;;5045836;28;19935;-77
2022/08/26 05:11:33;;;;;;;;;;;21.70;99.90;;;;;;5049712;28;19928;-77
2022/08/26 05:14:00;;;;;;;;;;;21.70;99.90;;;;;;5049488;28;19978;-79
2022/08/26 05:16:27;;;;;;;;;;;21.70;99.90;;;;;;5049236;28;20371;-77
2022/08/26 05:18:54;;;;;;;;;;;21.80;99.90;;;;;;5050176;28;19965;-77
2022/08/26 05:21:23;;;;;;;;;;;21.80;99.90;;;;;;5050124;28;19951;-77
2022/08/26 05:23:51;;;;;;;;;;;21.80;99.90;;;;;;5050276;28;20042;-82
2022/08/26 05:26:19;;;;;;;;;;;21.80;99.90;;;;;;5049467;28;20015;-80
2022/08/26 05:28:46;;;;;;;;;;;21.90;99.90;;;;;;5050015;28;19935;-79
2022/08/26 05:31:14;;;;;;;;;;;21.90;99.90;;;;;;5049134;28;19948;-80
2022/08/26 05:33:41;;;;;;;;;;;21.90;99.90;;;;;;5050275;28;19951;-76
2022/08/26 05:36:08;;;;;;;;;;;21.90;99.90;;;;;;5050044;28;20024;-76
2022/08/26 05:38:35;;;;;;;;;;;22.00;99.90;;;;;;5068715;28;19939;-77
2022/08/26 05:41:02;;;;;;;;;;;22.00;99.90;;;;;;5054402;28;20042;-79
2022/08/26 05:43:30;;;;;;;;;;;22.00;99.90;;;;;;5053802;28;19929;-76
2022/08/26 05:46:05;;;;;;;;;;;21.90;99.90;;;;;;5054176;28;19950;-80
2022/08/26 05:48:32;;;;;;;;;;;22.00;99.90;;;;;;5054435;28;19982;-78
2022/08/26 05:51:02;;;;;;;;;;;22.00;99.90;;;;;;5053858;28;20006;-80
2022/08/26 05:53:29;;;;;;;;;;;22.10;99.90;;;;;;5054069;28;19929;-80
2022/08/26 05:55:55;;;;;;;;;;;22.10;99.90;;;;;;5054653;28;19932;-78
2022/08/26 05:58:23;;;;;;;;;;;22.20;99.90;;;;;;5054163;28;19932;-80
2022/08/26 06:00:57;;;;;;;;;;;22.30;99.90;;;;;;5048852;28;20387;-81
2022/08/26 06:03:24;;;;;;;;;;;22.40;99.90;;;;;;5053703;28;19964;-82
2022/08/26 06:05:51;;;;;;;;;;;22.40;99.90;;;;;;5053939;28;19932;-77
2022/08/26 06:08:20;;;;;;;;;;;22.50;99.90;;;;;;5053261;28;19929;-82
2022/08/26 06:10:47;;;;;;;;;;;22.50;99.90;;;;;;5057873;28;19944;-83
2022/08/26 06:13:14;;;;;;;;;;;22.60;99.90;;;;;;5052474;28;19925;-81
2022/08/26 06:15:42;;;;;;;;;;;22.60;99.90;;;;;;5054731;28;19929;-79
2022/08/26 06:18:11;;;;;;;;;;;22.60;99.90;;;;;;5053362;28;19932;-84
2022/08/26 06:20:42;;;;;;;;;;;22.60;99.90;;;;;;5054688;28;19931;-79
2022/08/26 06:25:53;;;;;;;;;;;22.70;99.90;;;;;;5049601;28;19928;-80
2022/08/26 06:28:20;;;;;;;;;;;22.80;99.90;;;;;;5066598;28;19964;-78
2022/08/26 06:30:47;;;;;;;;;;;22.80;99.90;;;;;;5053208;28;20368;-82
2022/08/26 06:33:15;;;;;;;;;;;22.80;99.90;;;;;;5053132;28;19925;-78
2022/08/26 06:35:42;;;;;;;;;;;22.90;99.90;;;;;;5053394;28;19991;-78
2022/08/26 06:38:09;;;;;;;;;;;22.90;99.90;;;;;;5053106;28;19955;-82
2022/08/26 06:40:40;;;;;;;;;;;22.90;99.90;;;;;;5053384;28;19935;-80
2022/08/26 06:43:07;;;;;;;;;;;23.00;99.90;;;;;;5052912;28;19951;-81
2022/08/26 06:45:34;;;;;;;;;;;23.00;99.90;;;;;;5053545;28;19948;-79
2022/08/26 06:48:01;;;;;;;;;;;23.00;99.90;;;;;;5053234;28;19928;-81
2022/08/26 06:50:29;;;;;;;;;;;23.10;99.90;;;;;;5053022;28;19936;-81
2022/08/26 06:52:56;;;;;;;;;;;23.10;99.90;;;;;;5041176;28;20027;-79
2022/08/26 06:55:23;;;;;;;;;;;23.10;99.90;;;;;;5052919;28;19933;-78
2022/08/26 06:57:50;;;;;;;;;;;23.10;99.90;;;;;;5052942;28;19932;-81
2022/08/26 07:00:18;;;;;;;;;;;23.20;99.90;;;;;;5069921;28;20358;-80
2022/08/26 07:02:45;;;;;;;;;;;23.20;99.90;;;;;;5064689;28;19974;-79
2022/08/26 07:05:12;;;;;;;;;;;23.20;99.90;;;;;;5051790;28;19932;-80
2022/08/26 07:07:42;;;;;;;;;;;23.30;99.90;;;;;;5050660;28;20228;-79
2022/08/26 07:10:10;;;;;;;;;;;23.30;99.90;;;;;;5052562;28;20445;-78
2022/08/26 07:12:37;;;;;;;;;;;23.40;99.90;;;;;;5052878;28;19928;-79
2022/08/26 07:15:05;;;;;;;;;;;23.40;99.90;;;;;;5053522;28;19928;-78
2022/08/26 07:17:32;;;;;;;;;;;23.40;99.90;;;;;;5069939;28;19928;-81
2022/08/26 07:19:59;;;;;;;;;;;23.50;99.90;;;;;;5052427;28;19932;-78
2022/08/26 07:22:25;;;;;;;;;;;23.40;99.90;;;;;;5045133;28;19928;-80
2022/08/26 07:24:54;;;;;;;;;;;23.50;99.90;;;;;;5053192;28;19978;-80
2022/08/26 07:27:21;;;;;;;;;;;23.50;99.90;;;;;;5053776;28;19928;-80
2022/08/26 07:29:47;;;;;;;;;;;23.50;99.90;;;;;;5055528;28;20374;-80
2022/08/26 07:32:15;;;;;;;;;;;23.40;99.90;;;;;;5055181;28;20027;-80
2022/08/26 07:34:43;;;;;;;;;;;23.40;99.90;;;;;;5057837;28;20010;-78
2022/08/26 07:37:10;;;;;;;;;;;23.50;99.90;;;;;;5069294;28;20380;-77
2022/08/26 07:39:37;;;;;;;;;;;23.50;99.90;;;;;;5052649;28;19934;-81
2022/08/26 07:42:06;;;;;;;;;;;23.50;99.90;;;;;;5043302;28;19933;-78
2022/08/26 07:44:33;;;;;;;;;;;23.60;99.90;;;;;;5050554;28;19956;-79
2022/08/26 07:47:01;;;;;;;;;;;23.60;99.90;;;;;;5049291;28;20319;-79
2022/08/26 07:49:28;;;;;;;;;;;23.60;99.90;;;;;;5047614;28;20455;-81
2022/08/26 07:51:55;;;;;;;;;;;23.70;99.90;;;;;;5069156;28;20391;-77
2022/08/26 07:54:23;;;;;;;;;;;23.70;99.90;;;;;;5065821;28;19924;-79
2022/08/26 07:56:50;;;;;;;;;;;23.70;99.90;;;;;;5051308;28;19967;-77
2022/08/26 07:59:19;;;;;;;;;;;23.70;99.90;;;;;;5045342;28;20023;-78
2022/08/26 08:01:46;;;;;;;;;;;23.70;99.90;;;;;;5041830;28;19986;-78
2022/08/26 08:04:13;;;;;;;;;;;23.60;99.90;;;;;;5057839;28;20167;-79
2022/08/26 08:06:40;;;;;;;;;;;23.60;99.90;;;;;;5051792;28;19924;-77
2022/08/26 08:09:08;;;;;;;;;;;23.60;99.90;;;;;;5052107;28;19970;-78
2022/08/26 08:11:35;;;;;;;;;;;23.50;99.90;;;;;;5051957;28;19936;-78
2022/08/26 08:14:03;;;;;;;;;;;23.50;99.90;;;;;;5045825;28;20038;-78
2022/08/26 08:16:31;;;;;;;;;;;23.50;99.90;;;;;;5070653;28;19928;-78
2022/08/26 08:18:59;;;;;;;;;;;23.50;99.90;;;;;;5060346;28;20447;-79
2022/08/26 08:21:28;;;;;;;;;;;23.60;99.90;;;;;;5054076;28;19925;-76
2022/08/26 08:23:55;;;;;;;;;;;23.60;99.90;;;;;;5048621;28;20030;-77
2022/08/26 08:26:23;;;;;;;;;;;23.70;99.90;;;;;;5052569;28;19998;-78
2022/08/26 08:28:49;;;;;;;;;;;23.70;99.90;;;;;;5052576;28;20010;-78
2022/08/26 08:31:20;;;;;;;;;;;23.70;99.90;;;;;;5051508;28;19928;-79
2022/08/26 08:33:48;;;;;;;;;;;23.80;99.90;;;;;;5052404;28;19940;-78
2022/08/26 08:36:15;;;;;;;;;;;23.80;99.90;;;;;;5069494;28;19948;-83
2022/08/26 08:38:42;;;;;;;;;;;23.90;99.90;;;;;;5069355;28;19928;-79
2022/08/26 08:41:18;;;;;;;;;;;23.90;99.90;;;;;;5051530;28;19928;-83
2022/08/26 08:43:46;;;;;;;;;;;23.90;99.90;;;;;;5051894;28;19994;-79
2022/08/26 08:46:18;;;;;;;;;;;23.90;99.90;;;;;;5049111;28;20027;-79
2022/08/26 08:48:46;;;;;;;;;;;23.90;99.90;;;;;;5065553;28;20271;-80
2022/08/26 08:51:19;;;;;;;;;;;23.90;99.90;;;;;;5052161;28;19925;-80
2022/08/26 08:53:49;;;;;;;;;;;23.80;99.90;;;;;;5046968;28;19928;-81
2022/08/26 08:56:22;;;;;;;;;;;23.80;99.90;;;;;;5051760;28;20335;-78
2022/08/26 08:58:52;;;;;;;;;;;23.80;99.90;;;;;;5045600;28;20249;-78
2022/08/26 09:01:25;;;;;;;;;;;23.80;99.90;;;;;;5049748;28;19931;-78
2022/08/26 09:03:55;;;;;;;;;;;23.90;99.90;;;;;;5062173;28;20027;-79
2022/08/26 09:06:25;;;;;;;;;;;24.00;99.90;;;;;;5051532;28;20289;-79
2022/08/26 09:08:51;;;;;;;;;;;23.90;99.90;;;;;;5046166;28;19951;-78
2022/08/26 09:11:19;;;;;;;;;;;24.00;99.90;;;;;;5052129;28;19932;-78
2022/08/26 09:13:50;;;;;;;;;;;23.40;99.90;;;;;;5042445;28;19928;-81
2022/08/26 09:16:20;;;;;;;;;;;24.10;99.90;;;;;;5050060;28;19932;-79
2022/08/26 09:18:52;;;;;;;;;;;24.20;99.90;;;;;;5042357;28;19942;-79
2022/08/26 09:21:22;;;;;;;;;;;24.40;99.90;;;;;;5044760;28;20723;-78
2022/08/26 09:23:51;;;;;;;;;;;24.50;99.90;;;;;;5049779;28;19928;-80
2022/08/26 09:26:19;;;;;;;;;;;24.60;99.90;;;;;;5052284;28;20472;-80
2022/08/26 09:28:47;;;;;;;;;;;24.70;99.90;;;;;;5050476;28;19932;-78
2022/08/26 09:31:19;;;;;;;;;;;24.90;99.90;;;;;;5050223;28;20621;-77
2022/08/26 09:33:47;;;;;;;;;;;25.10;99.90;;;;;;5053666;28;19935;-78
2022/08/26 09:36:17;;;;;;;;;;;25.10;99.90;;;;;;5055909;28;20741;-79
2022/08/26 09:38:44;;;;;;;;;;;25.20;99.90;;;;;;5052436;28;19932;-78
2022/08/26 09:41:24;;;;;;;;;;;25.20;99.90;;;;;;5053295;28;19935;-78
2022/08/26 09:44:11;;;;;;;;;;;25.20;99.90;;;;;;5053396;28;19928;-78
2022/08/26 09:46:40;;;;;;;;;;;25.30;99.90;;;;;;5034485;28;20399;-78
2022/08/26 09:49:28;;;;;;;;;;;25.40;99.90;;;;;;5053780;28;19929;-78
2022/08/26 09:52:13;;;;;;;;;;;25.50;99.90;;;;;;5029987;28;20404;-78
2022/08/26 09:54:41;;;;;;;;;;;25.60;99.90;;;;;;5033963;28;20333;-78
2022/08/26 09:57:15;;;;;;;;;;;25.60;99.90;;;;;;5034127;28;20281;-78
2022/08/26 09:59:42;;;;;;;;;;;25.60;99.90;;;;;;5051146;28;20015;-78
2022/08/26 10:02:17;;;;;;;;;;;25.60;99.90;;;;;;5033711;28;19929;-76
2022/08/26 10:04:50;;;;;;;;;;;25.60;99.90;;;;;;5033634;28;19948;-78
2022/08/26 10:07:33;;;;;;;;;;;25.50;99.90;;;;;;5050834;28;20321;-78
2022/08/26 10:10:02;;;;;;;;;;;25.40;99.90;;;;;;5051392;28;19929;-78
2022/08/26 10:12:33;;;;;;;;;;;25.30;99.90;;;;;;5050758;28;19929;-78
2022/08/26 10:15:03;;;;;;;;;;;25.20;99.90;;;;;;5034999;28;19925;-78
2022/08/26 10:17:33;;;;;;;;;;;25.10;99.90;;;;;;5034260;28;20439;-78
2022/08/26 10:20:02;;;;;;;;;;;25.00;99.90;;;;;;5051690;28;19925;-78
2022/08/26 10:22:34;;;;;;;;;;;25.00;99.90;;;;;;5053548;28;19979;-76
2022/08/26 10:25:02;;;;;;;;;;;25.00;99.90;;;;;;5035830;28;19931;-78
2022/08/26 10:27:35;;;;;;;;;;;25.10;99.90;;;;;;5055434;28;19925;-77
2022/08/26 10:30:05;;;;;;;;;;;25.20;99.90;;;;;;5054236;28;19982;-78
2022/08/26 10:32:34;;;;;;;;;;;25.20;99.90;;;;;;5056116;28;19955;-77
2022/08/26 10:35:01;;;;;;;;;;;25.20;99.90;;;;;;5053394;28;20577;-78
2022/08/26 10:37:32;;;;;;;;;;;25.20;99.90;;;;;;5053155;28;20297;-77
2022/08/26 10:40:01;;;;;;;;;;;25.20;99.90;;;;;;5054383;28;19925;-77
2022/08/26 10:42:32;;;;;;;;;;;25.10;99.90;;;;;;5049084;28;19975;-78
2022/08/26 10:45:02;;;;;;;;;;;25.20;99.90;;;;;;5057681;28;19924;-78
2022/08/26 10:47:32;;;;;;;;;;;25.20;99.90;;;;;;5058488;28;20293;-78
2022/08/26 10:50:00;;;;;;;;;;;25.40;99.90;;;;;;5076879;28;20497;-77
2022/08/26 10:52:34;;;;;;;;;;;25.60;99.90;;;;;;5056785;28;20392;-78
2022/08/26 10:55:04;;;;;;;;;;;24.80;99.90;;;;;;5057182;28;19930;-78
2022/08/26 10:57:38;;;;;;;;;;;26.00;99.90;;;;;;5057857;28;19924;-78
2022/08/26 11:02:56;;;;;;;;;;;26.40;99.90;;;;;;5054930;28;19938;-78
2022/08/26 11:05:23;;;;;;;;;;;26.50;99.90;;;;;;5075285;28;19924;-77
2022/08/26 11:07:52;;;;;;;;;;;26.60;99.90;;;;;;5056256;28;19951;-77
2022/08/26 11:10:38;;;;;;;;;;;26.60;99.90;;;;;;5074001;28;20047;-77
2022/08/26 11:13:06;;;;;;;;;;;26.90;99.90;;;;;;5056522;28;19997;-77
2022/08/26 11:16:09;;;;;;;;;;;26.70;99.90;;;;;;5056606;28;20296;-77
2022/08/26 11:18:43;;;;;;;;;;;26.80;99.90;;;;;;5052336;28;19936;-77
2022/08/26 11:21:30;;;;;;;;;;;26.80;99.90;;;;;;5054321;28;20511;-77
2022/08/26 11:23:57;;;;;;;;;;;26.70;99.90;;;;;;5018819;28;20440;-77
2022/08/26 11:26:33;;;;;;;;;;;26.80;99.90;;;;;;5036165;28;20404;-76
2022/08/26 11:29:01;;;;;;;;;;;26.90;99.90;;;;;;5035015;28;20376;-77
2022/08/26 11:31:47;;;;;;;;;;;27.00;99.90;;;;;;5054353;28;19929;-77
2022/08/26 11:34:18;;;;;;;;;;;27.10;99.90;;;;;;5061309;28;19928;-78
2022/08/26 11:36:56;;;;;;;;;;;27.10;99.90;;;;;;5036830;28;20205;-77
2022/08/26 11:39:28;;;;;;;;;;;27.20;99.90;;;;;;5044016;28;19929;-78
2022/08/26 11:41:58;;;;;;;;;;;27.20;99.90;;;;;;5041948;28;19982;-78
2022/08/26 11:44:27;;;;;;;;;;;27.30;99.90;;;;;;5058884;28;19939;-77
2022/08/26 11:46:55;;;;;;;;;;;27.30;99.90;;;;;;5038440;28;20246;-78
2022/08/26 11:49:24;;;;;;;;;;;27.50;99.90;;;;;;5036650;28;19939;-78
2022/08/26 11:51:51;;;;;;;;;;;27.60;99.90;;;;;;5052481;28;19969;-77
2022/08/26 11:54:20;;;;;;;;;;;27.80;99.90;;;;;;5034434;28;19929;-77
2022/08/26 11:56:48;;;;;;;;;;;27.80;99.90;;;;;;5033936;28;19933;-78
2022/08/26 11:59:18;;;;;;;;;;;27.90;99.90;;;;;;5038665;28;19951;-79
2022/08/26 12:01:48;;;;;;;;;;;27.90;99.90;;;;;;5038345;28;19929;-78
2022/08/26 12:04:21;;;;;;;;;;;28.10;99.90;;;;;;5037119;28;19929;-77
2022/08/26 12:06:51;;;;;;;;;;;28.30;99.90;;;;;;5054850;28;20331;-79
2022/08/26 12:09:21;;;;;;;;;;;28.50;99.90;;;;;;5037841;28;20655;-80
2022/08/26 12:11:48;;;;;;;;;;;28.60;99.90;;;;;;5042687;28;20432;-79
2022/08/26 12:14:17;;;;;;;;;;;28.60;99.90;;;;;;5058023;28;19956;-79
2022/08/26 12:16:45;;;;;;;;;;;28.50;99.90;;;;;;5058456;28;19929;-79
2022/08/26 12:19:24;;;;;;;;;;;28.40;99.90;;;;;;5064262;28;19924;-79
2022/08/26 12:21:56;;;;;;;;;;;28.30;99.90;;;;;;5077936;28;19929;-78
2022/08/26 12:24:26;;;;;;;;;;;28.30;99.90;;;;;;5075035;28;19977;-78
2022/08/26 12:27:05;;;;;;;;;;;28.20;99.90;;;;;;5075439;28;19935;-80
2022/08/26 12:29:32;;;;;;;;;;;28.60;99.90;;;;;;5056813;28;19975;-79
2022/08/26 12:32:07;;;;;;;;;;;27.60;99.90;;;;;;5076253;28;19928;-79
2022/08/26 12:34:33;;;;;;;;;;;27.40;99.90;;;;;;5059344;28;19971;-79
2022/08/26 12:37:02;;;;;;;;;;;27.30;99.90;;;;;;5058739;28;19986;-78
2022/08/26 12:39:31;;;;;;;;;;;27.20;99.90;;;;;;5058320;28;19929;-78
2022/08/26 12:41:59;;;;;;;;;;;27.20;99.90;;;;;;5056600;28;19963;-78
2022/08/26 12:44:33;;;;;;;;;;;27.20;99.90;;;;;;5056606;28;19928;-78
2022/08/26 12:47:01;;;;;;;;;;;27.30;99.90;;;;;;5073702;28;19947;-79
2022/08/26 12:49:28;;;;;;;;;;;27.40;99.90;;;;;;5057436;28;20029;-78
2022/08/26 12:51:55;;;;;;;;;;;27.50;99.90;;;;;;5054791;28;20019;-77
2022/08/26 12:54:57;;;;;;;;;;;27.60;99.90;;;;;;5052437;28;19935;-77
2022/08/26 12:57:11;;;;;;;;;;;27.70;99.90;;;;;;5053432;28;19928;-78
2022/08/26 12:59:38;;;;;;;;;;;27.70;99.90;;;;;;5053146;28;20452;-77
2022/08/26 13:02:05;;;;;;;;;;;27.60;99.90;;;;;;5052407;28;19928;-79
2022/08/26 13:04:33;;;;;;;;;;;27.70;99.90;;;;;;5050550;28;20377;-79
2022/08/26 13:07:13;;;;;;;;;;;27.70;99.90;;;;;;5050438;28;19928;-79
2022/08/26 13:09:41;;;;;;;;;;;27.80;99.90;;;;;;5050181;28;19964;-79
2022/08/26 13:12:10;;;;;;;;;;;27.90;99.90;;;;;;5047216;28;19935;-80
2022/08/26 13:14:37;;;;;;;;;;;27.90;99.90;;;;;;5047560;28;20740;-79
2022/08/26 13:17:04;;;;;;;;;;;27.80;99.90;;;;;;5068713;28;20035;-80
2022/08/26 13:19:31;;;;;;;;;;;27.80;99.90;;;;;;5049467;28;19935;-79
2022/08/26 13:21:58;;;;;;;;;;;27.70;99.90;;;;;;5067885;28;20442;-79
2022/08/26 13:24:28;;;;;;;;;;;27.70;99.90;;;;;;5043164;28;19935;-79
2022/08/26 13:26:56;;;;;;;;;;;27.50;99.90;;;;;;5059647;28;20297;-79
2022/08/26 13:29:24;;;;;;;;;;;27.40;99.90;;;;;;5049147;28;19925;-78
2022/08/26 13:31:51;;;;;;;;;;;27.40;99.90;;;;;;5066989;28;20471;-79
2022/08/26 13:34:19;;;;;;;;;;;27.30;99.90;;;;;;5050087;28;19931;-79
2022/08/26 13:36:46;;;;;;;;;;;27.30;99.90;;;;;;5050315;28;19932;-78
2022/08/26 13:39:13;;;;;;;;;;;27.20;99.90;;;;;;5050144;28;20384;-79
2022/08/26 13:41:41;;;;;;;;;;;27.10;99.90;;;;;;5050178;28;19928;-79
2022/08/26 13:44:10;;;;;;;;;;;27.00;99.90;;;;;;5049478;28;20475;-79
2022/08/26 13:46:37;;;;;;;;;;;26.90;99.90;;;;;;5069292;28;20479;-80
2022/08/26 13:49:04;;;;;;;;;;;26.90;99.90;;;;;;5050293;28;19924;-79
2022/08/26 13:51:31;;;;;;;;;;;26.90;99.90;;;;;;5048963;28;19936;-79
2022/08/26 13:53:58;;;;;;;;;;;26.90;99.90;;;;;;5049754;28;19929;-79
2022/08/26 13:56:28;;;;;;;;;;;26.90;99.90;;;;;;5042835;28;19982;-79
2022/08/26 13:58:55;;;;;;;;;;;26.80;99.90;;;;;;5049249;28;20031;-79
2022/08/26 14:01:23;;;;;;;;;;;26.80;99.90;;;;;;5054552;28;20410;-80
2022/08/26 14:03:53;;;;;;;;;;;26.70;99.90;;;;;;5054890;28;19924;-80
2022/08/26 14:06:20;;;;;;;;;;;26.50;99.90;;;;;;5073120;28;20301;-81
2022/08/26 14:08:50;;;;;;;;;;;26.30;99.90;;;;;;5073450;28;19974;-80
2022/08/26 14:11:17;;;;;;;;;;;26.20;99.90;;;;;;5047601;28;20036;-79
2022/08/26 14:13:44;;;;;;;;;;;26.10;99.90;;;;;;5072208;28;19928;-80
2022/08/26 14:16:15;;;;;;;;;;;25.90;99.90;;;;;;5056605;28;19932;-79
2022/08/26 14:18:43;;;;;;;;;;;25.60;99.90;;;;;;5075731;28;19939;-81
2022/08/26 14:21:12;;;;;;;;;;;25.70;99.90;;;;;;5073433;28;19931;-79
2022/08/26 14:23:40;;;;;;;;;;;25.50;99.90;;;;;;5072407;28;20366;-79
2022/08/26 14:26:09;;;;;;;;;;;25.50;99.90;;;;;;5071951;28;20078;-79
2022/08/26 14:28:39;;;;;;;;;;;25.40;99.90;;;;;;5058908;28;19928;-79
2022/08/26 14:31:09;;;;;;;;;;;25.30;99.90;;;;;;5055882;28;19929;-79